createdAt,value
2022-08-02T00:10:17.884Z,12604.1123
2022-08-02T00:25:20.137Z,9713.07129
2022-08-02T00:40:22.354Z,2544.02881
2022-08-02T00:55:31.215Z,5483.86768
2022-08-02T01:10:33.844Z,6049.93066
2022-08-02T01:25:36.017Z,8191.64258
2022-08-02T01:40:38.327Z,1975.79736
2022-08-02T01:55:57.916Z,2056.0437
2022-08-02T02:12:11.630Z,1687.34387
2022-08-02T02:27:16.001Z,1109.35278
2022-08-02T02:42:18.420Z,994.40515
2022-08-02T02:57:20.780Z,546.54327
2022-08-02T03:12:26.885Z,239.65489
2022-08-02T03:27:32.913Z,78.07761
2022-08-02T03:42:35.191Z,17.35058
2022-08-02T03:57:37.451Z,2.16882
2022-08-02T04:12:39.711Z,0
2022-08-02T04:27:50.364Z,0
2022-08-02T04:43:18.283Z,0
2022-08-02T04:58:39.302Z,0
2022-08-02T05:13:59.313Z,0
2022-08-02T05:29:01.927Z,0
2022-08-02T05:44:04.145Z,0
2022-08-02T05:59:06.553Z,0
2022-08-02T06:14:08.752Z,0
2022-08-02T06:29:10.937Z,0
2022-08-02T06:44:46.012Z,0
2022-08-02T06:59:53.249Z,0
2022-08-02T07:14:55.463Z,0
2022-08-02T07:29:57.798Z,0
2022-08-02T07:45:00.073Z,0
2022-08-02T08:00:02.462Z,0
2022-08-02T08:15:04.831Z,0
2022-08-02T08:30:07.037Z,0
2022-08-02T08:45:09.268Z,0
2022-08-02T09:00:11.527Z,0
2022-08-02T09:15:16.008Z,0
2022-08-02T09:30:18.572Z,0
2022-08-02T09:45:20.801Z,0
2022-08-02T10:00:43.378Z,0
2022-08-02T10:15:54.294Z,0
2022-08-02T10:30:56.501Z,0
2022-08-02T10:45:58.810Z,0
2022-08-02T11:01:01.213Z,0
2022-08-02T11:16:07.752Z,0
2022-08-02T11:31:13.544Z,0
2022-08-02T11:46:15.858Z,0
2022-08-02T12:01:18.117Z,3.25323
2022-08-02T12:16:20.335Z,26.02587
2022-08-02T12:31:22.716Z,98.68143
2022-08-02T12:46:24.911Z,217.96666
2022-08-02T13:01:27.170Z,360.02454
2022-08-02T13:16:31.296Z,754.75024
2022-08-02T13:31:36.620Z,1176.58618
2022-08-02T13:46:39.292Z,1664.57129
2022-08-02T14:01:48.045Z,1999.65442
2022-08-02T14:16:50.335Z,2262.08179
2022-08-02T14:31:52.583Z,2913.81299
2022-08-02T14:46:56.182Z,4012.32178
2022-08-02T15:01:58.524Z,3627.35571
2022-08-02T15:17:00.878Z,2872.60547
2022-08-02T15:32:03.149Z,4146.78857
2022-08-02T15:47:05.335Z,6059.68994
2022-08-02T16:02:07.684Z,6927.21924
2022-08-02T16:17:09.954Z,6785.16113
2022-08-02T16:32:12.515Z,6681.05762
2022-08-02T16:47:15.198Z,6775.40137
2022-08-02T17:02:18.343Z,6920.71289
2022-08-02T17:17:21.747Z,6723.34961
2022-08-02T17:32:24.143Z,6545.50635
2022-08-02T17:47:31.657Z,6543.3374
2022-08-02T18:02:55.139Z,6495.62354
2022-08-02T18:17:58.001Z,7008.5498
2022-08-02T18:33:55.896Z,6971.68018
2022-08-02T18:49:13.300Z,7114.82227
2022-08-02T19:04:27.592Z,7377.25
2022-08-02T19:19:30.853Z,7589.79443
2022-08-02T19:34:35.694Z,7800.17041
2022-08-02T19:49:40.431Z,7893.42969
2022-08-02T20:04:43.219Z,7953.07227
2022-08-02T20:19:52.548Z,7879.33203
2022-08-02T20:34:54.750Z,7794.74805
2022-08-02T20:49:57.101Z,7784.98828
2022-08-02T21:05:00.117Z,7955.24121
2022-08-02T21:20:10.082Z,2705.6062
2022-08-02T21:35:13.271Z,8580.94629
2022-08-02T21:50:16.308Z,9525.46875
2022-08-02T22:05:18.962Z,10154.42676
2022-08-02T22:20:21.526Z,10338.77734
2022-08-02T22:35:23.871Z,10753.02246
2022-08-02T22:50:27.098Z,10540.47754
2022-08-02T23:05:29.380Z,11187.87109
2022-08-02T23:20:31.614Z,11797.31055
2022-08-02T23:35:33.885Z,12485.91113
2022-08-02T23:50:36.084Z,13264.51855
